Time;durP1;ratioP1;P1;durP2;ratioP2;P2;SDS_P1;SDS_P2;PMS_P1;PMS_P2;Temp;Humidity;BMP_temperature;BMP_pressure;BME280_temperature;BME280_humidity;BME280_pressure;Samples;Min_cycle;Max_cycle;Signal;HPM_P1;HPM_P2
2020/12/06 00:01:51;;;;;;;21.10;16.50;;;;;;;5.15;86.22;98626.77;1805604;79;21350;-79
2020/12/06 00:04:20;;;;;;;23.95;19.85;;;;;;;5.14;86.22;98629.50;1806047;79;21402;-82
2020/12/06 00:06:49;;;;;;;23.73;19.00;;;;;;;5.14;86.24;98626.84;1782229;79;20999;-82
2020/12/06 00:09:17;;;;;;;25.30;17.85;;;;;;;5.11;86.26;98623.86;1806335;79;21351;-82
2020/12/06 00:11:49;;;;;;;22.55;16.70;;;;;;;5.10;86.25;98624.78;1805856;79;21402;-79
2020/12/06 00:14:16;;;;;;;19.15;16.90;;;;;;;5.10;86.20;98623.45;1805664;79;21007;-80
2020/12/06 00:16:44;;;;;;;20.80;16.82;;;;;;;5.09;86.17;98630.17;1805768;79;20909;-80
2020/12/06 00:19:12;;;;;;;24.25;17.60;;;;;;;5.09;86.34;98631.50;1805692;79;20916;-79
2020/12/06 00:21:39;;;;;;;22.00;17.27;;;;;;;5.07;86.28;98631.09;1805654;79;21026;-80
2020/12/06 00:24:07;;;;;;;23.42;17.92;;;;;;;5.07;86.13;98631.09;1805717;79;21789;-79
2020/12/06 00:26:35;;;;;;;22.93;17.77;;;;;;;5.05;86.16;98632.11;1805833;79;21355;-79
2020/12/06 00:29:02;;;;;;;20.72;15.08;;;;;;;5.05;86.23;98634.77;1805787;79;20928;-79
2020/12/06 00:31:30;;;;;;;21.02;15.30;;;;;;;5.04;86.06;98635.70;1805615;79;20967;-79
2020/12/06 00:33:57;;;;;;;17.98;14.93;;;;;;;5.00;85.96;98641.63;1805881;79;21515;-80
2020/12/06 00:36:25;;;;;;;20.50;14.90;;;;;;;4.96;86.13;98644.01;1805764;79;22629;-79
2020/12/06 00:38:52;;;;;;;19.50;17.40;;;;;;;4.96;86.09;98646.67;1805700;79;20920;-79
2020/12/06 00:41:23;;;;;;;19.23;15.78;;;;;;;4.94;86.07;98641.89;1805657;79;21327;-79
2020/12/06 00:43:50;;;;;;;16.32;14.28;;;;;;;4.94;86.03;98641.89;1805730;79;20972;-79
2020/12/06 00:46:22;;;;;;;15.75;14.07;;;;;;;4.93;85.94;98649.46;1805712;79;20964;-79
2020/12/06 00:48:50;;;;;;;17.97;15.37;;;;;;;4.90;85.79;98649.59;1781273;79;22105;-79
2020/12/06 00:51:20;;;;;;;19.23;14.75;;;;;;;4.88;85.73;98655.45;1805627;79;20960;-79
2020/12/06 00:53:48;;;;;;;17.82;14.15;;;;;;;4.86;85.71;98648.86;1805738;79;21015;-79
2020/12/06 00:56:19;;;;;;;15.18;13.48;;;;;;;4.84;85.67;98649.84;1805694;79;21347;-79
2020/12/06 00:58:48;;;;;;;17.85;13.83;;;;;;;4.82;85.67;98654.38;1805760;79;20976;-78
2020/12/06 01:01:18;;;;;;;14.18;12.78;;;;;;;4.77;85.63;98643.06;1805303;79;40226;-79
2020/12/06 01:03:47;;;;;;;14.83;13.15;;;;;;;4.77;85.65;98655.05;1805716;79;21020;-78
2020/12/06 01:06:16;;;;;;;14.80;12.23;;;;;;;4.72;85.54;98645.06;1805699;79;20869;-79
2020/12/06 01:08:44;;;;;;;17.00;14.20;;;;;;;4.68;85.62;98657.16;1805653;79;20917;-78
2020/12/06 01:11:13;;;;;;;15.72;12.70;;;;;;;4.65;85.62;98663.05;1805524;79;20893;-79
2020/12/06 01:13:41;;;;;;;15.78;12.53;;;;;;;4.63;85.59;98664.92;1810340;79;21402;-79
2020/12/06 01:16:08;;;;;;;13.45;11.60;;;;;;;4.61;85.54;98657.47;1814841;79;21517;-79
2020/12/06 01:18:36;;;;;;;12.10;10.72;;;;;;;4.60;85.55;98662.38;1814925;79;20923;-79
2020/12/06 01:21:03;;;;;;;12.43;11.00;;;;;;;4.57;85.46;98655.38;1814736;79;20932;-79
2020/12/06 01:23:31;;;;;;;14.20;11.85;;;;;;;4.52;85.41;98657.38;1814936;79;21330;-79
2020/12/06 01:25:59;;;;;;;13.05;11.68;;;;;;;4.49;85.39;98662.81;1814833;79;21351;-79
2020/12/06 01:28:27;;;;;;;11.65;10.10;;;;;;;4.45;85.40;98662.08;1814771;79;21429;-79
2020/12/06 01:30:55;;;;;;;14.75;10.98;;;;;;;4.44;85.42;98666.13;1814884;79;21346;-78
2020/12/06 01:33:23;;;;;;;13.88;11.48;;;;;;;4.41;85.47;98655.61;1814851;78;20872;-78
2020/12/06 01:35:52;;;;;;;11.97;10.78;;;;;;;4.37;85.49;98665.96;1814845;78;20928;-80
2020/12/06 01:38:21;;;;;;;12.13;10.58;;;;;;;4.34;85.36;98661.65;1814842;78;21346;-80
2020/12/06 01:40:49;;;;;;;12.05;10.18;;;;;;;4.30;85.51;98655.59;1814839;79;21433;-79
2020/12/06 01:43:16;;;;;;;12.18;10.00;;;;;;;4.30;85.47;98660.91;1814873;79;20971;-79
2020/12/06 01:45:44;;;;;;;12.70;10.63;;;;;;;4.25;85.47;98651.37;1814856;79;20884;-78
2020/12/06 01:48:12;;;;;;;11.05;9.95;;;;;;;4.23;85.47;98654.09;1814873;79;21437;-79
2020/12/06 01:50:39;;;;;;;11.43;10.23;;;;;;;4.19;85.58;98655.12;1814753;79;20972;-79
2020/12/06 01:53:07;;;;;;;13.10;9.98;;;;;;;4.16;85.57;98664.11;1814951;79;21046;-80
2020/12/06 01:55:35;;;;;;;13.93;12.45;;;;;;;4.15;85.53;98658.86;1815021;79;20904;-81
2020/12/06 01:58:08;;;;;;;12.50;11.30;;;;;;;4.11;85.64;98659.89;1814927;79;20865;-80
2020/12/06 02:00:36;;;;;;;13.22;9.65;;;;;;;4.10;85.61;98663.46;1815221;79;21421;-79
2020/12/06 02:03:05;;;;;;;12.55;11.25;;;;;;;4.05;85.61;98657.47;1814982;79;21880;-79
2020/12/06 02:05:34;;;;;;;12.20;10.88;;;;;;;4.04;85.63;98659.73;1814880;79;20936;-79
2020/12/06 02:08:02;;;;;;;12.20;10.58;;;;;;;4.03;85.62;98661.98;1814985;79;20916;-80
2020/12/06 02:10:34;;;;;;;10.95;9.88;;;;;;;3.98;85.62;98665.67;1814973;78;21334;-80
2020/12/06 02:13:02;;;;;;;12.43;10.65;;;;;;;3.98;85.64;98663.02;1813800;77;20892;-79
2020/12/06 02:15:30;;;;;;;12.15;10.95;;;;;;;3.97;85.74;98667.95;1805862;79;21795;-80
2020/12/06 02:17:57;;;;;;;12.28;10.78;;;;;;;3.95;85.68;98672.43;1805810;79;20924;-79
2020/12/06 02:20:25;;;;;;;12.60;11.30;;;;;;;3.94;85.74;98673.38;1805852;79;21349;-81
2020/12/06 02:22:53;;;;;;;11.50;10.30;;;;;;;3.92;85.61;98672.55;1805779;79;20935;-80
2020/12/06 02:25:20;;;;;;;11.73;10.10;;;;;;;3.89;85.66;98668.67;1806116;79;21103;-80
2020/12/06 02:27:47;;;;;;;11.80;9.83;;;;;;;3.88;85.75;98676.27;1805893;79;21789;-80
2020/12/06 02:30:15;;;;;;;10.23;9.25;;;;;;;3.87;85.79;98679.84;1805941;79;20924;-79
2020/12/06 02:32:42;;;;;;;10.43;9.35;;;;;;;3.86;85.79;98670.13;1805875;79;20913;-80
2020/12/06 02:35:12;;;;;;;13.03;10.63;;;;;;;3.83;85.68;98672.89;1805938;79;21406;-80
2020/12/06 02:37:40;;;;;;;11.20;10.10;;;;;;;3.84;85.69;98678.62;1805919;79;20928;-80
2020/12/06 02:40:07;;;;;;;10.85;9.23;;;;;;;3.83;85.61;98670.70;1805953;79;21801;-82
2020/12/06 02:42:34;;;;;;;12.07;9.60;;;;;;;3.81;85.73;98676.08;1805738;79;20897;-81
2020/12/06 02:45:03;;;;;;;9.83;8.80;;;;;;;3.81;85.66;98670.77;1805936;79;20905;-80
2020/12/06 02:47:31;;;;;;;10.43;8.93;;;;;;;3.81;85.59;98669.44;1805914;79;20932;-82
2020/12/06 02:49:59;;;;;;;11.22;9.45;;;;;;;3.78;85.59;98673.53;1805819;79;20976;-81
2020/12/06 02:52:27;;;;;;;11.10;9.20;;;;;;;3.75;85.58;98678.52;1805825;79;21801;-80
2020/12/06 02:54:54;;;;;;;9.75;8.73;;;;;;;3.74;85.64;98673.27;1805760;79;21001;-80
2020/12/06 02:57:22;;;;;;;10.38;9.28;;;;;;;3.72;85.64;98665.79;1805799;79;20925;-80
2020/12/06 02:59:50;;;;;;;9.53;8.53;;;;;;;3.70;85.80;98672.95;1805812;79;21416;-78
2020/12/06 03:02:17;;;;;;;9.85;8.08;;;;;;;3.70;85.84;98673.81;1805870;79;20991;-79
2020/12/06 03:04:45;;;;;;;9.55;8.55;;;;;;;3.70;85.85;98668.98;1805750;79;21795;-80
2020/12/06 03:07:15;;;;;;;9.40;8.48;;;;;;;3.71;85.74;98676.03;1805702;79;20940;-79
2020/12/06 03:09:42;;;;;;;9.75;8.75;;;;;;;3.69;85.72;98672.10;1805887;79;21342;-79
2020/12/06 03:12:10;;;;;;;9.68;8.43;;;;;;;3.68;85.60;98673.02;1805716;79;20972;-80
2020/12/06 03:14:38;;;;;;;9.03;8.13;;;;;;;3.68;85.64;98676.14;1811874;79;21559;-79
2020/12/06 03:17:05;;;;;;;8.45;7.42;;;;;;;3.68;85.63;98680.13;1814859;79;21188;-80
2020/12/06 03:19:34;;;;;;;10.65;8.60;;;;;;;3.61;85.59;98674.16;1814837;79;20932;-79
2020/12/06 03:22:02;;;;;;;8.68;7.78;;;;;;;3.57;85.80;98675.20;1814981;79;21318;-79
2020/12/06 03:24:31;;;;;;;9.45;8.45;;;;;;;3.60;85.79;98675.95;1814948;79;20900;-79
2020/12/06 03:26:58;;;;;;;9.40;8.05;;;;;;;3.57;85.75;98676.06;1814988;79;21437;-79
2020/12/06 03:29:26;;;;;;;9.30;8.35;;;;;;;3.56;85.87;98670.80;1814870;79;21401;-80
2020/12/06 03:31:53;;;;;;;9.90;8.85;;;;;;;3.54;85.94;98669.53;1814753;78;20948;-78
2020/12/06 03:34:21;;;;;;;9.80;7.92;;;;;;;3.55;85.86;98672.60;1783537;79;21041;-79
2020/12/06 03:36:49;;;;;;;8.45;7.65;;;;;;;3.57;85.80;98676.06;1814763;79;20983;-79
2020/12/06 03:39:17;;;;;;;10.50;7.50;;;;;;;3.55;85.76;98671.75;1815190;79;20967;-80
2020/12/06 03:41:45;;;;;;;11.28;8.00;;;;;;;3.53;85.71;98673.57;1815595;79;22608;-80
2020/12/06 03:44:13;;;;;;;9.98;8.00;;;;;;;3.54;85.72;98670.00;1815480;79;20928;-79
2020/12/06 03:46:40;;;;;;;8.73;7.47;;;;;;;3.52;85.66;98670.06;1815421;78;20967;-80
2020/12/06 03:49:07;;;;;;;8.25;7.40;;;;;;;3.51;85.67;98674.95;1814989;79;21469;-79
2020/12/06 03:51:35;;;;;;;10.05;8.33;;;;;;;3.49;85.54;98672.83;1814921;78;20916;-79
2020/12/06 03:54:02;;;;;;;9.60;8.60;;;;;;;3.44;85.65;98663.70;1814910;79;21841;-79
2020/12/06 03:56:30;;;;;;;9.13;8.33;;;;;;;3.44;85.83;98677.45;1814827;79;20995;-79
2020/12/06 03:58:58;;;;;;;8.90;7.17;;;;;;;3.43;85.84;98665.08;1814924;79;20960;-80
2020/12/06 04:01:26;;;;;;;7.80;7.00;;;;;;;3.45;85.78;98680.48;1814801;79;21003;-79
2020/12/06 04:03:54;;;;;;;8.60;7.67;;;;;;;3.44;85.71;98670.33;1814888;79;20901;-80
2020/12/06 04:06:22;;;;;;;8.53;7.72;;;;;;;3.43;85.64;98675.23;1815049;79;21334;-80
2020/12/06 04:08:50;;;;;;;8.00;7.17;;;;;;;3.41;85.64;98674.90;1814755;79;21441;-79
2020/12/06 04:11:19;;;;;;;7.60;6.35;;;;;;;3.40;85.68;98687.76;1814797;79;20976;-79
2020/12/06 04:13:49;;;;;;;7.67;6.97;;;;;;;3.39;85.51;98676.72;1817484;78;21158;-80
2020/12/06 04:16:17;;;;;;;7.37;6.62;;;;;;;3.34;85.52;98681.34;1828832;78;21547;-82
2020/12/06 04:18:44;;;;;;;6.20;5.60;;;;;;;3.33;85.70;98687.59;1828724;78;21364;-80
2020/12/06 04:21:13;;;;;;;7.78;6.35;;;;;;;3.29;85.66;98681.49;1828672;78;21338;-79
2020/12/06 04:23:40;;;;;;;7.25;6.05;;;;;;;3.28;85.67;98673.58;1828728;78;21441;-80
2020/12/06 04:26:07;;;;;;;8.63;7.22;;;;;;;3.28;85.76;98690.84;1828774;78;20995;-80
2020/12/06 04:28:35;;;;;;;7.85;7.05;;;;;;;3.25;85.83;98687.86;1828708;78;20919;-80
2020/12/06 04:31:02;;;;;;;7.17;6.30;;;;;;;3.26;85.75;98693.55;1828620;78;21844;-80
2020/12/06 04:33:30;;;;;;;7.05;6.35;;;;;;;3.25;85.70;98690.51;1828774;78;21405;-79
2020/12/06 04:35:58;;;;;;;6.58;5.87;;;;;;;3.24;85.61;98679.47;1828669;78;20959;-79
2020/12/06 04:38:26;;;;;;;6.67;5.92;;;;;;;3.20;85.57;98688.02;1828738;78;21461;-79
2020/12/06 04:40:53;;;;;;;6.37;5.72;;;;;;;3.20;85.47;98684.47;1828710;78;20912;-80
2020/12/06 04:43:21;;;;;;;7.50;6.20;;;;;;;3.16;85.44;98686.38;1771667;78;22341;-79
2020/12/06 04:45:49;;;;;;;6.67;5.97;;;;;;;3.13;85.56;98693.11;1828725;78;21003;-79
2020/12/06 04:48:26;;;;;;;6.35;5.70;;;;;;;3.14;85.53;98692.20;1771257;78;20979;-80
2020/12/06 04:50:55;;;;;;;6.50;5.67;;;;;;;3.14;85.49;98699.28;1828657;78;20896;-81
2020/12/06 04:53:26;;;;;;;6.15;5.42;;;;;;;3.10;85.56;98691.89;1828850;78;21333;-79
2020/12/06 04:55:56;;;;;;;;;;;;;;;3.12;85.47;98699.80;1831269;78;21407;-78
2020/12/06 04:58:26;;;;;;;6.08;4.92;;;;;;;3.08;85.37;98699.05;1828707;78;20109;-81
2020/12/06 05:00:54;;;;;;;6.00;5.25;;;;;;;3.06;85.31;98708.86;1828573;78;20924;-80
2020/12/06 05:03:23;;;;;;;6.17;5.58;;;;;;;3.05;85.32;98688.53;1828710;78;20869;-80
2020/12/06 05:05:51;;;;;;;6.80;5.95;;;;;;;3.02;85.26;98691.29;1828768;78;20990;-81
2020/12/06 05:08:18;;;;;;;5.75;5.25;;;;;;;3.01;85.30;98697.07;1828702;78;21401;-80
2020/12/06 05:10:46;;;;;;;6.42;5.75;;;;;;;2.99;85.20;98690.06;1828575;78;21418;-81
2020/12/06 05:13:15;;;;;;;6.50;5.78;;;;;;;2.97;85.25;98687.47;1828716;78;20899;-80
2020/12/06 05:15:46;;;;;;;5.87;5.15;;;;;;;2.94;85.32;98702.16;1808200;78;21406;-80
2020/12/06 05:18:14;;;;;;;6.05;5.45;;;;;;;2.91;85.27;98690.80;1805705;79;20917;-79
2020/12/06 05:20:42;;;;;;;5.22;4.70;;;;;;;2.87;85.32;98698.00;1805672;79;21783;-81
2020/12/06 05:23:09;;;;;;;5.58;4.30;;;;;;;2.85;85.33;98694.06;1805818;79;21004;-81
2020/12/06 05:25:38;;;;;;;5.33;4.83;;;;;;;2.82;85.32;98702.56;1731339;79;21024;-80
2020/12/06 05:28:08;;;;;;;5.65;5.03;;;;;;;2.81;85.40;98698.20;1805764;79;20996;-82
2020/12/06 05:30:41;;;;;;;5.67;5.08;;;;;;;2.76;85.32;98701.00;1781590;79;20881;-79
2020/12/06 05:33:11;;;;;;;4.80;4.33;;;;;;;2.71;85.47;98701.59;1781891;79;21359;-80
2020/12/06 05:35:43;;;;;;;4.85;4.30;;;;;;;2.68;85.58;98703.01;1805980;79;20917;-80
2020/12/06 05:38:12;;;;;;;5.70;4.78;;;;;;;2.69;85.59;98707.41;1805851;79;20952;-80
2020/12/06 05:40:45;;;;;;;4.50;4.08;;;;;;;2.69;85.48;98707.41;1805764;79;20941;-80
2020/12/06 05:43:13;;;;;;;8.40;5.50;;;;;;;2.67;85.42;98706.60;1805911;79;20893;-79
2020/12/06 05:45:40;;;;;;;4.95;4.47;;;;;;;2.59;85.34;98709.97;1756055;79;21874;-80
2020/12/06 05:48:08;;;;;;;5.75;5.12;;;;;;;2.58;85.46;98705.09;1805923;79;20976;-80
2020/12/06 05:50:36;;;;;;;5.45;4.55;;;;;;;2.58;85.56;98702.45;1781408;79;20925;-81
2020/12/06 05:53:03;;;;;;;4.80;4.30;;;;;;;2.61;85.50;98710.77;1805833;79;20893;-80
2020/12/06 05:55:32;;;;;;;4.87;4.15;;;;;;;2.57;85.29;98714.42;1805923;79;20900;-80
2020/12/06 05:58:00;;;;;;;4.22;3.67;;;;;;;2.52;85.39;98722.09;1781497;79;21808;-79
2020/12/06 06:00:28;;;;;;;3.85;3.50;;;;;;;2.52;85.40;98731.38;1805674;79;21539;-79
2020/12/06 06:02:58;;;;;;;3.95;3.65;;;;;;;2.49;85.23;98732.79;1805932;79;21325;-80
2020/12/06 06:05:26;;;;;;;5.30;4.53;;;;;;;2.50;85.16;98731.86;1805916;79;21039;-79
2020/12/06 06:07:54;;;;;;;4.40;4.00;;;;;;;2.51;85.17;98735.39;1805939;79;20896;-80
2020/12/06 06:10:21;;;;;;;3.80;3.40;;;;;;;2.48;85.17;98746.09;1805923;79;22622;-81
2020/12/06 06:12:52;;;;;;;5.45;4.80;;;;;;;2.47;85.05;98744.34;1805735;79;20975;-79
2020/12/06 06:15:20;;;;;;;4.45;4.03;;;;;;;2.41;85.04;98754.67;1811109;79;20967;-80
2020/12/06 06:17:48;;;;;;;4.80;4.15;;;;;;;2.36;85.05;98743.35;1814872;79;21003;-81
2020/12/06 06:20:18;;;;;;;5.42;4.67;;;;;;;2.34;85.07;98743.86;1814934;79;20964;-80
2020/12/06 06:22:47;;;;;;;4.90;4.33;;;;;;;2.30;85.14;98748.40;1814908;79;21356;-81
2020/12/06 06:25:14;;;;;;;5.25;3.62;;;;;;;2.30;85.24;98740.88;1814910;79;20912;-80
2020/12/06 06:27:44;;;;;;;5.17;3.95;;;;;;;2.27;85.20;98750.25;1814915;79;20913;-79
2020/12/06 06:30:11;;;;;;;4.15;3.75;;;;;;;2.25;85.12;98755.59;1814817;79;21000;-80
2020/12/06 06:32:39;;;;;;;3.27;2.98;;;;;;;2.21;85.22;98756.63;1814912;79;20968;-82
2020/12/06 06:35:08;;;;;;;4.62;3.25;;;;;;;2.19;85.05;98758.43;1814928;78;21799;-81
2020/12/06 06:37:37;;;;;;;3.75;3.45;;;;;;;2.16;85.19;98762.05;1814860;79;20932;-79
2020/12/06 06:40:07;;;;;;;3.72;3.42;;;;;;;2.16;85.23;98756.76;1814972;79;21319;-79
2020/12/06 06:42:38;;;;;;;3.30;2.85;;;;;;;2.15;85.21;98757.66;1814913;79;20872;-78
2020/12/06 06:45:10;;;;;;;3.90;3.50;;;;;;;2.14;85.14;98770.95;1815020;79;20916;-79
2020/12/06 06:47:41;;;;;;;4.72;3.50;;;;;;;2.13;84.94;98768.77;1814909;79;21356;-83
2020/12/06 06:50:10;;;;;;;3.27;2.98;;;;;;;2.14;84.73;98766.55;1815029;79;20999;-79
2020/12/06 06:52:41;;;;;;;4.50;4.00;;;;;;;2.14;84.62;98769.19;1814983;79;21394;-80
2020/12/06 06:55:09;;;;;;;3.30;2.75;;;;;;;2.12;84.64;98763.05;1814977;79;21019;-80
2020/12/06 06:57:41;;;;;;;5.20;2.92;;;;;;;2.12;84.68;98765.70;1814975;79;21552;-81
2020/12/06 07:00:10;;;;;;;4.03;3.45;;;;;;;2.10;84.56;98768.00;1814990;79;21188;-80
2020/12/06 07:02:41;;;;;;;3.42;3.12;;;;;;;2.08;84.43;98768.05;1814913;79;21054;-80
2020/12/06 07:05:17;;;;;;;4.17;3.70;;;;;;;2.09;84.58;98765.78;1814980;78;21394;-82
2020/12/06 07:07:49;;;;;;;4.95;3.17;;;;;;;2.07;84.54;98759.67;1814984;79;21461;-80
2020/12/06 07:10:24;;;;;;;3.20;2.90;;;;;;;2.06;84.54;98763.69;1815010;79;20869;-80
2020/12/06 07:12:55;;;;;;;3.17;2.87;;;;;;;2.06;84.75;98757.92;1815103;79;22106;-79
2020/12/06 07:15:25;;;;;;;6.12;3.87;;;;;;;2.05;84.67;98764.16;1810720;79;21450;-80
2020/12/06 07:17:55;;;;;;;4.03;3.17;;;;;;;2.03;84.48;98773.91;1805872;79;20885;-80
2020/12/06 07:20:25;;;;;;;3.58;3.17;;;;;;;2.01;84.60;98758.52;1805694;79;20928;-81
2020/12/06 07:22:53;;;;;;;4.60;3.65;;;;;;;2.02;84.63;98761.59;1805813;79;20913;-80
2020/12/06 07:25:23;;;;;;;5.30;3.98;;;;;;;2.04;84.66;98754.46;1805878;79;22244;-80
2020/12/06 07:27:51;;;;;;;3.90;3.12;;;;;;;2.06;84.62;98768.52;1805740;79;20933;-81
2020/12/06 07:30:19;;;;;;;3.67;3.30;;;;;;;2.05;84.54;98769.45;1805693;79;20979;-81
2020/12/06 07:32:47;;;;;;;4.50;3.25;;;;;;;2.05;84.59;98760.62;1805741;79;21564;-80
2020/12/06 07:35:16;;;;;;;4.67;3.67;;;;;;;2.04;84.56;98762.88;1805801;79;20901;-80
2020/12/06 07:37:45;;;;;;;4.03;3.58;;;;;;;2.06;84.48;98761.90;1805770;79;22275;-81
2020/12/06 07:40:13;;;;;;;3.92;2.95;;;;;;;2.03;84.25;98765.96;1805639;79;20924;-80
2020/12/06 07:42:41;;;;;;;4.03;3.62;;;;;;;2.00;84.35;98768.70;1805748;79;20948;-82
2020/12/06 07:45:09;;;;;;;3.75;3.40;;;;;;;2.00;84.57;98752.80;1805692;79;20992;-80
2020/12/06 07:47:37;;;;;;;4.95;4.42;;;;;;;2.00;84.47;98762.08;1805808;79;21007;-81
2020/12/06 07:50:06;;;;;;;5.47;4.10;;;;;;;1.98;84.48;98748.02;1805730;79;21189;-81
2020/12/06 07:52:35;;;;;;;4.03;3.62;;;;;;;1.98;84.41;98765.23;1805629;79;20925;-81
2020/12/06 07:55:07;;;;;;;4.20;3.65;;;;;;;1.97;84.45;98756.86;1805813;79;20944;-79
2020/12/06 07:57:52;;;;;;;5.45;3.95;;;;;;;1.98;84.52;98758.61;1805702;79;20981;-80
2020/12/06 08:03:15;;;;;;;4.53;3.77;;;;;;;2.02;84.37;98753.64;1842238;77;27950;-79
2020/12/06 08:05:46;;;;;;;4.42;3.40;;;;;;;1.99;84.32;98753.73;1810510;79;20948;-80
2020/12/06 08:08:16;;;;;;;4.55;3.50;;;;;;;2.01;84.35;98766.47;1750653;82;21820;-81
2020/12/06 08:10:57;;;;;;;3.75;3.45;;;;;;;2.00;84.31;98754.12;1781470;80;21031;-79
2020/12/06 08:13:26;;;;;;;3.90;3.52;;;;;;;1.97;84.29;98754.21;1750645;82;20957;-80
2020/12/06 08:16:06;;;;;;;4.10;3.33;;;;;;;1.99;84.31;98759.03;1781528;80;21000;-80
2020/12/06 08:18:34;;;;;;;3.92;3.50;;;;;;;2.01;84.43;98759.84;1750709;82;21426;-81
2020/12/06 08:21:01;;;;;;;3.87;3.33;;;;;;;2.03;84.32;98755.36;1781526;80;21800;-81
2020/12/06 08:23:37;;;;;;;4.62;3.80;;;;;;;2.02;84.16;98755.41;1750574;82;20918;-80
2020/12/06 08:26:06;;;;;;;4.05;3.65;;;;;;;2.04;84.17;98753.14;1780693;80;21016;-80
2020/12/06 08:28:37;;;;;;;5.17;3.98;;;;;;;2.04;84.11;98770.36;1750366;82;20956;-81
2020/12/06 08:31:23;;;;;;;3.85;3.45;;;;;;;2.04;84.10;98755.79;1781555;80;21492;-80
2020/12/06 08:33:52;;;;;;;3.85;3.55;;;;;;;2.08;84.08;98765.39;1750486;82;21612;-80
2020/12/06 08:36:24;;;;;;;4.95;4.20;;;;;;;2.06;83.94;98763.22;1781390;80;20944;-80
2020/12/06 08:38:53;;;;;;;4.42;4.00;;;;;;;2.04;83.89;98765.06;1749795;82;21080;-80
2020/12/06 08:41:27;;;;;;;3.90;3.50;;;;;;;2.06;83.99;98756.59;1780709;80;21678;-79
2020/12/06 08:44:02;;;;;;;4.92;4.42;;;;;;;2.08;83.96;98761.42;1749985;82;21598;-79
2020/12/06 08:46:31;;;;;;;4.95;4.45;;;;;;;2.08;83.97;98750.82;1780987;80;21374;-82
2020/12/06 08:49:02;;;;;;;4.10;3.70;;;;;;;2.07;83.94;98758.34;1742929;82;21434;-79
2020/12/06 08:51:37;;;;;;;4.15;3.67;;;;;;;2.09;83.89;98755.19;1780904;80;20945;-81
2020/12/06 08:54:06;;;;;;;4.15;3.67;;;;;;;2.10;83.84;98754.28;1749961;82;21550;-78
2020/12/06 08:56:39;;;;;;;6.03;5.12;;;;;;;2.13;83.72;98755.98;1780838;80;21059;-80
2020/12/06 08:59:16;;;;;;;4.53;3.50;;;;;;;2.12;83.67;98755.09;1749926;82;21376;-79
2020/12/06 09:01:51;;;;;;;4.20;3.80;;;;;;;2.12;83.59;98741.84;1766149;81;21016;-82
2020/12/06 09:04:19;;;;;;;3.90;3.47;;;;;;;2.15;83.44;98746.20;1782267;80;21564;-79
2020/12/06 09:06:50;;;;;;;3.85;3.15;;;;;;;2.13;83.48;98742.27;1750020;82;21016;-79
2020/12/06 09:09:17;;;;;;;4.08;3.47;;;;;;;2.13;83.49;98735.64;1782295;80;20948;-81
2020/12/06 09:11:45;;;;;;;4.17;3.55;;;;;;;2.11;83.48;98750.73;1749635;82;21390;-81
2020/12/06 09:14:14;;;;;;;5.40;4.80;;;;;;;2.12;83.40;98744.50;1781846;80;21549;-83
2020/12/06 09:16:41;;;;;;;5.00;4.50;;;;;;;2.14;83.44;98736.50;1749457;82;21411;-80
2020/12/06 09:19:10;;;;;;;4.15;3.75;;;;;;;2.14;83.41;98735.17;1781617;80;21020;-80
2020/12/06 09:21:38;;;;;;;3.72;3.42;;;;;;;2.19;83.34;98726.63;1749338;82;21004;-81
2020/12/06 09:24:05;;;;;;;4.75;4.15;;;;;;;2.20;83.18;98731.02;1781760;80;21414;-79
2020/12/06 09:26:32;;;;;;;5.03;3.87;;;;;;;2.21;82.95;98727.47;1749282;82;21093;-81
2020/12/06 09:29:00;;;;;;;4.25;3.65;;;;;;;2.24;82.92;98727.81;1781590;80;21471;-81
2020/12/06 09:31:27;;;;;;;5.25;3.72;;;;;;;2.27;82.99;98726.40;1749532;82;21068;-81
2020/12/06 09:33:55;;;;;;;4.22;3.67;;;;;;;2.23;82.59;98730.08;1781713;80;20936;-79
2020/12/06 09:36:29;;;;;;;5.05;3.87;;;;;;;2.27;82.62;98734.34;1749166;82;21457;-80
2020/12/06 09:38:56;;;;;;;4.65;4.17;;;;;;;2.28;82.70;98720.19;1781789;80;21544;-81
2020/12/06 09:41:24;;;;;;;5.20;4.60;;;;;;;2.30;82.60;98723.66;1749309;82;21020;-81
2020/12/06 09:43:52;;;;;;;4.83;4.33;;;;;;;2.26;82.52;98727.33;1781698;80;21046;-80
2020/12/06 09:46:20;;;;;;;4.05;3.65;;;;;;;2.27;82.65;98722.42;1749541;82;21680;-79
2020/12/06 09:48:48;;;;;;;4.72;4.28;;;;;;;2.25;82.78;98733.53;1774588;80;22378;-80
2020/12/06 09:51:15;;;;;;;4.30;3.62;;;;;;;2.25;82.71;98733.53;1749320;82;21605;-79
2020/12/06 09:53:44;;;;;;;5.42;4.78;;;;;;;2.22;82.76;98730.98;1781819;80;21032;-80
2020/12/06 09:56:12;;;;;;;3.55;3.25;;;;;;;2.21;82.65;98726.58;1749251;82;21044;-80
2020/12/06 09:58:39;;;;;;;4.33;3.77;;;;;;;2.23;82.64;98719.47;1749297;82;21458;-81
2020/12/06 10:01:10;;;;;;;4.17;3.77;;;;;;;2.23;82.57;98724.30;1781757;80;21731;-79
2020/12/06 10:03:41;;;;;;;4.40;3.70;;;;;;;2.27;82.50;98723.74;1760831;81;21001;-80
2020/12/06 10:06:08;;;;;;;4.28;3.85;;;;;;;2.25;82.35;98725.58;1749489;82;21574;-80
2020/12/06 10:08:37;;;;;;;6.08;4.20;;;;;;;2.20;82.34;98714.27;1780235;80;21529;-79
2020/12/06 10:11:08;;;;;;;4.90;4.40;;;;;;;2.16;82.39;98723.63;1815604;79;20992;-80
2020/12/06 10:13:40;;;;;;;4.85;4.42;;;;;;;2.15;82.58;98711.28;1816483;79;21456;-79
2020/12/06 10:16:08;;;;;;;5.83;4.87;;;;;;;2.15;82.67;98716.58;1816210;79;20952;-79
2020/12/06 10:18:38;;;;;;;4.70;4.15;;;;;;;2.16;82.58;98714.36;1749382;82;20967;-78
2020/12/06 10:21:05;;;;;;;5.40;4.90;;;;;;;2.15;82.48;98708.63;1816347;79;21010;-79
2020/12/06 10:23:33;;;;;;;5.12;4.15;;;;;;;2.17;82.42;98710.77;1749735;82;20960;-80
2020/12/06 10:26:00;;;;;;;4.67;3.92;;;;;;;2.16;82.52;98710.38;1816932;79;21399;-78
2020/12/06 10:28:29;;;;;;;4.87;4.40;;;;;;;2.17;82.75;98702.82;1749739;82;20948;-80
2020/12/06 10:30:59;;;;;;;5.65;5.03;;;;;;;2.15;82.65;98696.70;1816945;79;21299;-79
2020/12/06 10:33:27;;;;;;;4.67;4.28;;;;;;;2.19;82.54;98693.97;1816967;79;20889;-79
2020/12/06 10:35:55;;;;;;;5.08;4.53;;;;;;;2.20;82.38;98689.94;1749987;82;21429;-79
2020/12/06 10:38:23;;;;;;;6.22;4.55;;;;;;;2.19;82.48;98697.47;1816954;79;22294;-79
2020/12/06 10:40:51;;;;;;;5.65;4.53;;;;;;;2.19;82.45;98681.57;1749843;82;20920;-79
2020/12/06 10:43:21;;;;;;;5.00;4.50;;;;;;;2.19;82.48;98686.88;1816273;79;21603;-79
2020/12/06 10:45:51;;;;;;;6.72;4.42;;;;;;;2.20;82.31;98689.09;1748814;82;21536;-78
2020/12/06 10:48:21;;;;;;;4.15;3.55;;;;;;;2.23;82.34;98686.34;1816334;79;20925;-79
2020/12/06 10:50:53;;;;;;;5.00;4.10;;;;;;;2.21;82.35;98683.73;1749469;82;22669;-80
2020/12/06 10:53:21;;;;;;;6.42;4.05;;;;;;;2.21;82.25;98672.25;1815614;78;20964;-79
2020/12/06 10:55:51;;;;;;;5.30;4.78;;;;;;;2.22;82.38;98679.30;1816122;79;20956;-79
2020/12/06 10:58:18;;;;;;;6.35;4.97;;;;;;;2.17;82.26;98667.52;1815922;79;21429;-80
2020/12/06 11:00:46;;;;;;;5.67;4.50;;;;;;;2.15;82.39;98669.35;1816335;79;20991;-80
2020/12/06 11:03:14;;;;;;;6.10;5.47;;;;;;;2.16;82.44;98664.44;1742811;82;21513;-78
2020/12/06 11:05:42;;;;;;;5.17;4.67;;;;;;;2.17;82.70;98672.34;1769184;81;21040;-78
2020/12/06 11:08:09;;;;;;;6.95;6.25;;;;;;;2.18;82.66;98665.28;1738870;82;21119;-78
2020/12/06 11:10:39;;;;;;;5.35;4.85;;;;;;;2.16;82.50;98669.30;1768507;81;20980;-81
2020/12/06 11:13:06;;;;;;;6.30;5.70;;;;;;;2.20;82.47;98657.28;1738851;82;20997;-79
2020/12/06 11:15:33;;;;;;;6.33;5.37;;;;;;;2.18;82.38;98657.33;1769381;81;21878;-79
2020/12/06 11:18:04;;;;;;;6.47;5.50;;;;;;;2.21;82.41;98647.07;1737872;82;21413;-80
2020/12/06 11:20:31;;;;;;;7.17;5.87;;;;;;;2.21;82.41;98647.07;1769534;81;21038;-79
2020/12/06 11:22:59;;;;;;;5.65;5.15;;;;;;;2.21;82.44;98647.07;1738033;82;21053;-79
2020/12/06 11:25:28;;;;;;;6.45;5.17;;;;;;;2.21;82.47;98644.42;1769290;81;21012;-81
2020/12/06 11:27:57;;;;;;;5.78;5.08;;;;;;;2.21;82.32;98640.45;1738884;82;21420;-81
2020/12/06 11:30:26;;;;;;;5.50;5.00;;;;;;;2.19;82.21;98643.14;1769486;81;21429;-79
2020/12/06 11:32:57;;;;;;;6.97;6.17;;;;;;;2.16;82.10;98632.20;1739272;82;20974;-78
2020/12/06 11:35:26;;;;;;;6.70;5.75;;;;;;;2.18;82.24;98626.86;1769756;81;20965;-80
2020/12/06 11:37:54;;;;;;;5.35;4.85;;;;;;;2.16;82.13;98626.91;1739274;82;20954;-79
2020/12/06 11:40:21;;;;;;;5.03;4.47;;;;;;;2.19;82.19;98617.97;1769845;81;21769;-81
2020/12/06 11:42:50;;;;;;;6.87;6.15;;;;;;;2.21;82.31;98621.89;1738901;82;20962;-79
2020/12/06 11:45:19;;;;;;;6.35;5.70;;;;;;;2.20;82.35;98622.36;1769645;81;20953;-79
2020/12/06 11:47:52;;;;;;;5.17;4.37;;;;;;;2.24;82.10;98629.75;1738358;82;20935;-79
2020/12/06 11:50:23;;;;;;;4.65;4.12;;;;;;;2.23;81.91;98624.92;1771601;81;20984;-80